sensor_id;sensor_type;location;lat;lon;timestamp;P1;durP1;ratioP1;P2;durP2;ratioP2
45318;SDS011;31057;48.498;32.260;2022-11-14T00:00:07;29.02;;;16.73;;
45318;SDS011;31057;48.498;32.260;2022-11-14T00:02:10;27.58;;;15.68;;
45318;SDS011;31057;48.498;32.260;2022-11-14T00:04:12;27.55;;;17.23;;
45318;SDS011;31057;48.498;32.260;2022-11-14T00:06:14;24.10;;;15.55;;
45318;SDS011;31057;48.498;32.260;2022-11-14T00:08:17;22.27;;;14.25;;
45318;SDS011;31057;48.498;32.260;2022-11-14T00:10:21;21.10;;;13.50;;
45318;SDS011;31057;48.498;32.260;2022-11-14T00:14:24;27.42;;;16.15;;
45318;SDS011;31057;48.498;32.260;2022-11-14T00:16:27;30.73;;;17.63;;
45318;SDS011;31057;48.498;32.260;2022-11-14T00:18:29;26.10;;;15.73;;
45318;SDS011;31057;48.498;32.260;2022-11-14T00:20:31;27.08;;;15.07;;
45318;SDS011;31057;48.498;32.260;2022-11-14T00:22:33;30.40;;;15.65;;
45318;SDS011;31057;48.498;32.260;2022-11-14T00:24:35;29.17;;;16.05;;
45318;SDS011;31057;48.498;32.260;2022-11-14T00:26:37;27.20;;;15.88;;
45318;SDS011;31057;48.498;32.260;2022-11-14T00:28:39;21.40;;;13.52;;
45318;SDS011;31057;48.498;32.260;2022-11-14T00:30:41;22.90;;;14.25;;
45318;SDS011;31057;48.498;32.260;2022-11-14T00:32:46;22.95;;;14.52;;
45318;SDS011;31057;48.498;32.260;2022-11-14T00:34:48;20.15;;;13.70;;
45318;SDS011;31057;48.498;32.260;2022-11-14T00:36:50;23.52;;;13.38;;
45318;SDS011;31057;48.498;32.260;2022-11-14T00:38:53;19.17;;;13.95;;
45318;SDS011;31057;48.498;32.260;2022-11-14T00:40:55;23.25;;;14.27;;
45318;SDS011;31057;48.498;32.260;2022-11-14T00:42:57;19.75;;;13.85;;
45318;SDS011;31057;48.498;32.260;2022-11-14T00:45:00;24.45;;;15.50;;
45318;SDS011;31057;48.498;32.260;2022-11-14T00:47:02;19.58;;;13.90;;
45318;SDS011;31057;48.498;32.260;2022-11-14T00:49:04;21.52;;;15.85;;
45318;SDS011;31057;48.498;32.260;2022-11-14T00:51:06;22.70;;;14.90;;
45318;SDS011;31057;48.498;32.260;2022-11-14T00:53:08;21.50;;;13.57;;
45318;SDS011;31057;48.498;32.260;2022-11-14T00:55:10;22.88;;;14.23;;
45318;SDS011;31057;48.498;32.260;2022-11-14T00:59:14;23.03;;;13.70;;
45318;SDS011;31057;48.498;32.260;2022-11-14T01:01:16;17.98;;;12.15;;
45318;SDS011;31057;48.498;32.260;2022-11-14T01:03:18;23.02;;;13.70;;
45318;SDS011;31057;48.498;32.260;2022-11-14T01:05:20;27.13;;;15.15;;
45318;SDS011;31057;48.498;32.260;2022-11-14T01:07:21;19.80;;;14.18;;
45318;SDS011;31057;48.498;32.260;2022-11-14T01:09:23;23.65;;;14.85;;
45318;SDS011;31057;48.498;32.260;2022-11-14T01:11:25;20.48;;;13.88;;
45318;SDS011;31057;48.498;32.260;2022-11-14T01:13:30;20.40;;;14.00;;
45318;SDS011;31057;48.498;32.260;2022-11-14T01:15:32;22.38;;;14.52;;
45318;SDS011;31057;48.498;32.260;2022-11-14T01:17:34;26.25;;;15.30;;
45318;SDS011;31057;48.498;32.260;2022-11-14T01:21:38;24.27;;;13.25;;
45318;SDS011;31057;48.498;32.260;2022-11-14T01:23:40;26.70;;;15.27;;
45318;SDS011;31057;48.498;32.260;2022-11-14T01:25:42;24.73;;;14.15;;
45318;SDS011;31057;48.498;32.260;2022-11-14T01:27:44;29.92;;;15.63;;
45318;SDS011;31057;48.498;32.260;2022-11-14T01:29:46;21.52;;;13.75;;
45318;SDS011;31057;48.498;32.260;2022-11-14T01:31:48;23.27;;;13.90;;
45318;SDS011;31057;48.498;32.260;2022-11-14T01:37:59;21.88;;;14.02;;
45318;SDS011;31057;48.498;32.260;2022-11-14T01:42:03;20.33;;;13.88;;
45318;SDS011;31057;48.498;32.260;2022-11-14T01:44:10;30.13;;;16.13;;
45318;SDS011;31057;48.498;32.260;2022-11-14T01:48:41;27.00;;;16.05;;
45318;SDS011;31057;48.498;32.260;2022-11-14T01:50:48;29.55;;;15.95;;
45318;SDS011;31057;48.498;32.260;2022-11-14T01:52:54;24.90;;;15.18;;
45318;SDS011;31057;48.498;32.260;2022-11-14T01:54:57;23.55;;;15.77;;
45318;SDS011;31057;48.498;32.260;2022-11-14T01:57:02;26.42;;;14.43;;
45318;SDS011;31057;48.498;32.260;2022-11-14T01:59:07;24.00;;;15.20;;
45318;SDS011;31057;48.498;32.260;2022-11-14T02:01:14;24.95;;;14.80;;
45318;SDS011;31057;48.498;32.260;2022-11-14T02:03:16;22.13;;;15.15;;
45318;SDS011;31057;48.498;32.260;2022-11-14T02:05:20;22.13;;;16.63;;
45318;SDS011;31057;48.498;32.260;2022-11-14T02:07:23;24.63;;;14.85;;
45318;SDS011;31057;48.498;32.260;2022-11-14T02:09:27;26.23;;;16.00;;
45318;SDS011;31057;48.498;32.260;2022-11-14T02:11:35;27.63;;;15.60;;
45318;SDS011;31057;48.498;32.260;2022-11-14T02:13:40;24.70;;;14.98;;
45318;SDS011;31057;48.498;32.260;2022-11-14T02:15:42;22.10;;;14.38;;
45318;SDS011;31057;48.498;32.260;2022-11-14T02:17:44;23.75;;;15.80;;
45318;SDS011;31057;48.498;32.260;2022-11-14T02:19:53;25.13;;;15.82;;
45318;SDS011;31057;48.498;32.260;2022-11-14T02:22:04;31.92;;;16.88;;
45318;SDS011;31057;48.498;32.260;2022-11-14T02:24:08;26.65;;;15.57;;
45318;SDS011;31057;48.498;32.260;2022-11-14T02:26:10;25.23;;;15.30;;
45318;SDS011;31057;48.498;32.260;2022-11-14T02:28:12;23.67;;;14.65;;
45318;SDS011;31057;48.498;32.260;2022-11-14T02:30:16;25.75;;;14.55;;
45318;SDS011;31057;48.498;32.260;2022-11-14T02:32:19;25.77;;;15.13;;
45318;SDS011;31057;48.498;32.260;2022-11-14T02:34:21;28.48;;;15.57;;
45318;SDS011;31057;48.498;32.260;2022-11-14T02:36:23;28.77;;;16.23;;
45318;SDS011;31057;48.498;32.260;2022-11-14T02:40:28;27.60;;;16.50;;
45318;SDS011;31057;48.498;32.260;2022-11-14T02:42:29;26.00;;;17.67;;
45318;SDS011;31057;48.498;32.260;2022-11-14T02:44:31;33.70;;;20.08;;
45318;SDS011;31057;48.498;32.260;2022-11-14T02:46:33;28.83;;;18.90;;
45318;SDS011;31057;48.498;32.260;2022-11-14T02:48:35;32.92;;;18.05;;
45318;SDS011;31057;48.498;32.260;2022-11-14T02:50:37;38.05;;;19.85;;
45318;SDS011;31057;48.498;32.260;2022-11-14T02:52:39;25.55;;;16.55;;
45318;SDS011;31057;48.498;32.260;2022-11-14T02:54:41;25.08;;;16.88;;
45318;SDS011;31057;48.498;32.260;2022-11-14T02:56:44;26.00;;;17.17;;
45318;SDS011;31057;48.498;32.260;2022-11-14T02:58:46;29.25;;;18.05;;
45318;SDS011;31057;48.498;32.260;2022-11-14T03:00:48;31.13;;;16.85;;
45318;SDS011;31057;48.498;32.260;2022-11-14T03:03:10;25.08;;;16.67;;
45318;SDS011;31057;48.498;32.260;2022-11-14T03:07:13;32.33;;;20.93;;
45318;SDS011;31057;48.498;32.260;2022-11-14T03:09:16;35.33;;;20.40;;
45318;SDS011;31057;48.498;32.260;2022-11-14T03:11:18;33.25;;;19.67;;
45318;SDS011;31057;48.498;32.260;2022-11-14T03:13:20;37.28;;;21.33;;
45318;SDS011;31057;48.498;32.260;2022-11-14T03:15:22;37.78;;;23.02;;
45318;SDS011;31057;48.498;32.260;2022-11-14T03:17:25;33.10;;;20.23;;
45318;SDS011;31057;48.498;32.260;2022-11-14T03:19:27;34.80;;;20.52;;
45318;SDS011;31057;48.498;32.260;2022-11-14T03:21:28;31.33;;;19.45;;
45318;SDS011;31057;48.498;32.260;2022-11-14T03:23:30;35.20;;;19.92;;
45318;SDS011;31057;48.498;32.260;2022-11-14T03:25:32;33.33;;;19.48;;
45318;SDS011;31057;48.498;32.260;2022-11-14T03:27:34;31.08;;;21.33;;
45318;SDS011;31057;48.498;32.260;2022-11-14T03:29:36;40.00;;;21.17;;
45318;SDS011;31057;48.498;32.260;2022-11-14T03:31:38;31.50;;;19.13;;
45318;SDS011;31057;48.498;32.260;2022-11-14T03:33:40;39.13;;;20.15;;
45318;SDS011;31057;48.498;32.260;2022-11-14T03:35:42;33.88;;;19.35;;
45318;SDS011;31057;48.498;32.260;2022-11-14T03:37:44;34.53;;;20.90;;
45318;SDS011;31057;48.498;32.260;2022-11-14T03:39:46;38.03;;;20.08;;
45318;SDS011;31057;48.498;32.260;2022-11-14T03:41:48;45.15;;;20.45;;
45318;SDS011;31057;48.498;32.260;2022-11-14T03:43:50;38.67;;;19.15;;
45318;SDS011;31057;48.498;32.260;2022-11-14T03:45:51;35.00;;;18.40;;
45318;SDS011;31057;48.498;32.260;2022-11-14T03:47:53;31.90;;;19.15;;
45318;SDS011;31057;48.498;32.260;2022-11-14T03:49:55;39.47;;;19.65;;
45318;SDS011;31057;48.498;32.260;2022-11-14T03:51:57;38.38;;;20.45;;
45318;SDS011;31057;48.498;32.260;2022-11-14T03:53:59;38.42;;;20.63;;
45318;SDS011;31057;48.498;32.260;2022-11-14T03:56:01;34.17;;;19.33;;
45318;SDS011;31057;48.498;32.260;2022-11-14T03:58:03;44.28;;;22.02;;
45318;SDS011;31057;48.498;32.260;2022-11-14T04:00:05;35.60;;;21.35;;
45318;SDS011;31057;48.498;32.260;2022-11-14T04:02:09;38.15;;;21.20;;
45318;SDS011;31057;48.498;32.260;2022-11-14T04:04:11;38.45;;;26.17;;
45318;SDS011;31057;48.498;32.260;2022-11-14T04:06:13;48.38;;;28.02;;
45318;SDS011;31057;48.498;32.260;2022-11-14T04:08:15;56.20;;;36.67;;
45318;SDS011;31057;48.498;32.260;2022-11-14T04:10:18;61.42;;;35.60;;
45318;SDS011;31057;48.498;32.260;2022-11-14T04:12:20;62.40;;;37.75;;
45318;SDS011;31057;48.498;32.260;2022-11-14T04:14:22;62.92;;;33.25;;
45318;SDS011;31057;48.498;32.260;2022-11-14T04:16:23;56.72;;;32.88;;
45318;SDS011;31057;48.498;32.260;2022-11-14T04:18:25;54.28;;;32.08;;
45318;SDS011;31057;48.498;32.260;2022-11-14T04:20:28;58.08;;;33.53;;
45318;SDS011;31057;48.498;32.260;2022-11-14T04:22:30;60.75;;;32.30;;
45318;SDS011;31057;48.498;32.260;2022-11-14T04:24:32;57.15;;;32.50;;
45318;SDS011;31057;48.498;32.260;2022-11-14T04:26:34;61.47;;;32.97;;
45318;SDS011;31057;48.498;32.260;2022-11-14T04:28:36;58.47;;;32.58;;
45318;SDS011;31057;48.498;32.260;2022-11-14T04:30:38;50.88;;;32.13;;
45318;SDS011;31057;48.498;32.260;2022-11-14T04:34:41;49.00;;;26.07;;
45318;SDS011;31057;48.498;32.260;2022-11-14T04:36:43;44.05;;;25.33;;
45318;SDS011;31057;48.498;32.260;2022-11-14T04:38:45;39.92;;;22.73;;
45318;SDS011;31057;48.498;32.260;2022-11-14T04:40:48;43.53;;;23.17;;
45318;SDS011;31057;48.498;32.260;2022-11-14T04:42:50;38.50;;;21.00;;
45318;SDS011;31057;48.498;32.260;2022-11-14T04:44:52;36.78;;;19.45;;
45318;SDS011;31057;48.498;32.260;2022-11-14T04:50:59;30.23;;;18.63;;
45318;SDS011;31057;48.498;32.260;2022-11-14T04:53:01;34.78;;;20.65;;
45318;SDS011;31057;48.498;32.260;2022-11-14T04:55:02;37.80;;;20.58;;
45318;SDS011;31057;48.498;32.260;2022-11-14T04:57:05;43.80;;;21.42;;
45318;SDS011;31057;48.498;32.260;2022-11-14T04:59:06;36.58;;;21.02;;
45318;SDS011;31057;48.498;32.260;2022-11-14T05:01:09;45.83;;;24.08;;
45318;SDS011;31057;48.498;32.260;2022-11-14T05:03:11;45.38;;;24.63;;
45318;SDS011;31057;48.498;32.260;2022-11-14T05:05:13;43.33;;;25.58;;
45318;SDS011;31057;48.498;32.260;2022-11-14T05:09:17;80.63;;;33.55;;
45318;SDS011;31057;48.498;32.260;2022-11-14T05:11:19;152.00;;;34.50;;
45318;SDS011;31057;48.498;32.260;2022-11-14T05:13:29;428.92;;;47.28;;
45318;SDS011;31057;48.498;32.260;2022-11-14T05:15:31;257.20;;;33.75;;
45318;SDS011;31057;48.498;32.260;2022-11-14T05:17:33;378.63;;;41.80;;
45318;SDS011;31057;48.498;32.260;2022-11-14T05:19:35;231.95;;;30.75;;
45318;SDS011;31057;48.498;32.260;2022-11-14T05:21:37;269.38;;;30.75;;
45318;SDS011;31057;48.498;32.260;2022-11-14T05:23:38;435.83;;;39.67;;
45318;SDS011;31057;48.498;32.260;2022-11-14T05:27:42;352.25;;;33.05;;
45318;SDS011;31057;48.498;32.260;2022-11-14T05:29:44;454.50;;;38.42;;
45318;SDS011;31057;48.498;32.260;2022-11-14T05:31:46;331.98;;;32.60;;
45318;SDS011;31057;48.498;32.260;2022-11-14T05:33:48;358.00;;;32.90;;
45318;SDS011;31057;48.498;32.260;2022-11-14T05:35:50;299.15;;;27.08;;
45318;SDS011;31057;48.498;32.260;2022-11-14T05:37:52;363.35;;;32.47;;
45318;SDS011;31057;48.498;32.260;2022-11-14T05:40:00;351.13;;;27.45;;
45318;SDS011;31057;48.498;32.260;2022-11-14T05:44:04;261.65;;;22.50;;
45318;SDS011;31057;48.498;32.260;2022-11-14T05:46:08;321.92;;;32.13;;
45318;SDS011;31057;48.498;32.260;2022-11-14T05:48:11;205.18;;;21.20;;
45318;SDS011;31057;48.498;32.260;2022-11-14T05:50:13;247.30;;;26.38;;
45318;SDS011;31057;48.498;32.260;2022-11-14T05:52:16;331.25;;;32.60;;
45318;SDS011;31057;48.498;32.260;2022-11-14T05:54:18;346.20;;;30.85;;
45318;SDS011;31057;48.498;32.260;2022-11-14T05:56:20;310.45;;;31.73;;
45318;SDS011;31057;48.498;32.260;2022-11-14T05:58:22;402.83;;;38.28;;
45318;SDS011;31057;48.498;32.260;2022-11-14T06:00:24;410.13;;;43.17;;
45318;SDS011;31057;48.498;32.260;2022-11-14T06:02:27;363.13;;;35.92;;
45318;SDS011;31057;48.498;32.260;2022-11-14T06:06:30;338.63;;;44.93;;
45318;SDS011;31057;48.498;32.260;2022-11-14T06:08:33;364.80;;;40.80;;
45318;SDS011;31057;48.498;32.260;2022-11-14T06:10:35;302.13;;;34.50;;
45318;SDS011;31057;48.498;32.260;2022-11-14T06:12:37;333.00;;;40.83;;
45318;SDS011;31057;48.498;32.260;2022-11-14T06:14:39;303.35;;;39.63;;
45318;SDS011;31057;48.498;32.260;2022-11-14T06:16:41;355.80;;;37.13;;
45318;SDS011;31057;48.498;32.260;2022-11-14T06:18:44;290.13;;;32.13;;
45318;SDS011;31057;48.498;32.260;2022-11-14T06:20:46;367.40;;;37.88;;
45318;SDS011;31057;48.498;32.260;2022-11-14T06:22:48;288.90;;;32.00;;
45318;SDS011;31057;48.498;32.260;2022-11-14T06:24:53;282.38;;;31.55;;
45318;SDS011;31057;48.498;32.260;2022-11-14T06:26:55;237.65;;;27.42;;
45318;SDS011;31057;48.498;32.260;2022-11-14T06:28:57;249.20;;;28.80;;
45318;SDS011;31057;48.498;32.260;2022-11-14T06:31:00;227.77;;;30.35;;
45318;SDS011;31057;48.498;32.260;2022-11-14T06:33:03;360.67;;;40.35;;
45318;SDS011;31057;48.498;32.260;2022-11-14T06:35:05;287.98;;;30.77;;
45318;SDS011;31057;48.498;32.260;2022-11-14T06:37:08;249.60;;;29.40;;
45318;SDS011;31057;48.498;32.260;2022-11-14T06:39:10;217.55;;;25.60;;
45318;SDS011;31057;48.498;32.260;2022-11-14T06:41:13;204.15;;;25.55;;
45318;SDS011;31057;48.498;32.260;2022-11-14T06:43:16;217.90;;;25.15;;
45318;SDS011;31057;48.498;32.260;2022-11-14T06:45:18;249.07;;;26.40;;
45318;SDS011;31057;48.498;32.260;2022-11-14T06:47:20;151.15;;;21.00;;
45318;SDS011;31057;48.498;32.260;2022-11-14T06:49:22;117.90;;;20.92;;
45318;SDS011;31057;48.498;32.260;2022-11-14T06:51:28;280.05;;;34.08;;
45318;SDS011;31057;48.498;32.260;2022-11-14T06:55:32;289.90;;;28.42;;
45318;SDS011;31057;48.498;32.260;2022-11-14T06:57:34;149.98;;;23.02;;
45318;SDS011;31057;48.498;32.260;2022-11-14T07:01:38;222.23;;;28.02;;
45318;SDS011;31057;48.498;32.260;2022-11-14T07:03:40;258.45;;;29.25;;
45318;SDS011;31057;48.498;32.260;2022-11-14T07:05:43;295.02;;;34.53;;
45318;SDS011;31057;48.498;32.260;2022-11-14T07:07:45;255.18;;;27.95;;
45318;SDS011;31057;48.498;32.260;2022-11-14T07:09:47;190.57;;;29.30;;
45318;SDS011;31057;48.498;32.260;2022-11-14T07:11:48;206.45;;;27.58;;
45318;SDS011;31057;48.498;32.260;2022-11-14T07:15:53;381.65;;;35.88;;
45318;SDS011;31057;48.498;32.260;2022-11-14T07:17:56;315.42;;;34.20;;
45318;SDS011;31057;48.498;32.260;2022-11-14T07:19:59;261.90;;;29.63;;
45318;SDS011;31057;48.498;32.260;2022-11-14T07:22:01;310.10;;;34.35;;
45318;SDS011;31057;48.498;32.260;2022-11-14T07:24:03;265.95;;;33.78;;
45318;SDS011;31057;48.498;32.260;2022-11-14T07:26:05;240.38;;;33.97;;
45318;SDS011;31057;48.498;32.260;2022-11-14T07:28:09;137.25;;;25.33;;
45318;SDS011;31057;48.498;32.260;2022-11-14T07:30:11;250.10;;;33.05;;
45318;SDS011;31057;48.498;32.260;2022-11-14T07:32:13;159.63;;;26.67;;
45318;SDS011;31057;48.498;32.260;2022-11-14T07:34:15;254.52;;;31.38;;
45318;SDS011;31057;48.498;32.260;2022-11-14T07:36:17;173.43;;;24.55;;
45318;SDS011;31057;48.498;32.260;2022-11-14T07:38:19;158.85;;;28.38;;
45318;SDS011;31057;48.498;32.260;2022-11-14T07:40:21;162.23;;;27.58;;
45318;SDS011;31057;48.498;32.260;2022-11-14T07:42:23;142.90;;;23.75;;
45318;SDS011;31057;48.498;32.260;2022-11-14T07:44:29;90.43;;;21.98;;
45318;SDS011;31057;48.498;32.260;2022-11-14T07:46:31;97.43;;;23.88;;
45318;SDS011;31057;48.498;32.260;2022-11-14T07:48:33;98.60;;;21.77;;
45318;SDS011;31057;48.498;32.260;2022-11-14T07:50:35;158.25;;;23.65;;
45318;SDS011;31057;48.498;32.260;2022-11-14T07:52:37;138.82;;;24.25;;
45318;SDS011;31057;48.498;32.260;2022-11-14T07:54:39;177.38;;;27.25;;
45318;SDS011;31057;48.498;32.260;2022-11-14T07:56:41;190.43;;;25.05;;
45318;SDS011;31057;48.498;32.260;2022-11-14T07:58:43;93.07;;;22.35;;
45318;SDS011;31057;48.498;32.260;2022-11-14T08:00:45;219.60;;;29.63;;
45318;SDS011;31057;48.498;32.260;2022-11-14T08:02:47;48.22;;;21.52;;
45318;SDS011;31057;48.498;32.260;2022-11-14T08:04:49;51.25;;;20.67;;
45318;SDS011;31057;48.498;32.260;2022-11-14T08:06:51;88.38;;;21.52;;
45318;SDS011;31057;48.498;32.260;2022-11-14T08:08:53;68.53;;;22.48;;
45318;SDS011;31057;48.498;32.260;2022-11-14T08:10:55;93.00;;;22.63;;
45318;SDS011;31057;48.498;32.260;2022-11-14T08:13:02;44.28;;;22.40;;
45318;SDS011;31057;48.498;32.260;2022-11-14T08:15:25;100.40;;;24.80;;
45318;SDS011;31057;48.498;32.260;2022-11-14T08:17:28;40.15;;;23.40;;
45318;SDS011;31057;48.498;32.260;2022-11-14T08:19:29;40.33;;;24.42;;
45318;SDS011;31057;48.498;32.260;2022-11-14T08:21:31;43.28;;;22.45;;
45318;SDS011;31057;48.498;32.260;2022-11-14T08:23:33;44.88;;;26.13;;
45318;SDS011;31057;48.498;32.260;2022-11-14T08:25:36;39.63;;;25.05;;
45318;SDS011;31057;48.498;32.260;2022-11-14T08:27:38;42.65;;;26.20;;
45318;SDS011;31057;48.498;32.260;2022-11-14T08:29:39;43.20;;;27.13;;
45318;SDS011;31057;48.498;32.260;2022-11-14T08:31:41;39.58;;;27.00;;
45318;SDS011;31057;48.498;32.260;2022-11-14T08:33:43;35.38;;;23.65;;
45318;SDS011;31057;48.498;32.260;2022-11-14T08:35:45;35.97;;;23.85;;
45318;SDS011;31057;48.498;32.260;2022-11-14T08:37:47;42.35;;;23.50;;
45318;SDS011;31057;48.498;32.260;2022-11-14T08:41:51;35.20;;;22.20;;
45318;SDS011;31057;48.498;32.260;2022-11-14T08:43:53;38.97;;;23.55;;
45318;SDS011;31057;48.498;32.260;2022-11-14T08:45:58;31.65;;;21.08;;
45318;SDS011;31057;48.498;32.260;2022-11-14T08:48:02;40.05;;;21.58;;
45318;SDS011;31057;48.498;32.260;2022-11-14T08:52:06;29.08;;;19.90;;
45318;SDS011;31057;48.498;32.260;2022-11-14T08:54:15;27.70;;;19.70;;
45318;SDS011;31057;48.498;32.260;2022-11-14T08:56:17;33.40;;;19.75;;
45318;SDS011;31057;48.498;32.260;2022-11-14T08:58:19;34.75;;;20.73;;
45318;SDS011;31057;48.498;32.260;2022-11-14T09:00:21;38.85;;;23.50;;
45318;SDS011;31057;48.498;32.260;2022-11-14T09:04:24;39.90;;;22.53;;
45318;SDS011;31057;48.498;32.260;2022-11-14T09:06:26;39.72;;;20.50;;
45318;SDS011;31057;48.498;32.260;2022-11-14T09:08:29;35.80;;;21.08;;
45318;SDS011;31057;48.498;32.260;2022-11-14T09:10:32;39.70;;;21.77;;
45318;SDS011;31057;48.498;32.260;2022-11-14T09:12:34;37.00;;;18.52;;
45318;SDS011;31057;48.498;32.260;2022-11-14T09:14:36;29.20;;;18.00;;
45318;SDS011;31057;48.498;32.260;2022-11-14T09:16:38;27.63;;;16.58;;
45318;SDS011;31057;48.498;32.260;2022-11-14T09:18:39;29.60;;;17.38;;
45318;SDS011;31057;48.498;32.260;2022-11-14T09:20:41;33.75;;;19.33;;
45318;SDS011;31057;48.498;32.260;2022-11-14T09:22:43;24.58;;;15.68;;
45318;SDS011;31057;48.498;32.260;2022-11-14T09:26:49;21.88;;;13.07;;
45318;SDS011;31057;48.498;32.260;2022-11-14T09:28:57;24.30;;;15.00;;
45318;SDS011;31057;48.498;32.260;2022-11-14T09:33:04;21.17;;;13.10;;
45318;SDS011;31057;48.498;32.260;2022-11-14T09:35:12;19.45;;;12.32;;
45318;SDS011;31057;48.498;32.260;2022-11-14T09:37:14;22.52;;;13.93;;
45318;SDS011;31057;48.498;32.260;2022-11-14T09:39:15;19.67;;;13.20;;
45318;SDS011;31057;48.498;32.260;2022-11-14T09:41:21;21.05;;;13.05;;
45318;SDS011;31057;48.498;32.260;2022-11-14T09:45:54;20.55;;;11.70;;
45318;SDS011;31057;48.498;32.260;2022-11-14T09:48:06;17.95;;;11.50;;
45318;SDS011;31057;48.498;32.260;2022-11-14T09:54:41;12.38;;;8.55;;
45318;SDS011;31057;48.498;32.260;2022-11-14T09:56:48;14.00;;;8.38;;
45318;SDS011;31057;48.498;32.260;2022-11-14T09:58:51;15.05;;;8.23;;
45318;SDS011;31057;48.498;32.260;2022-11-14T10:00:57;12.95;;;7.47;;
45318;SDS011;31057;48.498;32.260;2022-11-14T10:03:55;12.73;;;7.32;;
45318;SDS011;31057;48.498;32.260;2022-11-14T10:05:57;13.90;;;8.55;;
45318;SDS011;31057;48.498;32.260;2022-11-14T10:22:22;8.73;;;6.85;;
45318;SDS011;31057;48.498;32.260;2022-11-14T10:26:32;10.23;;;5.95;;
45318;SDS011;31057;48.498;32.260;2022-11-14T10:28:47;9.95;;;6.30;;
45318;SDS011;31057;48.498;32.260;2022-11-14T10:31:12;10.18;;;6.18;;
45318;SDS011;31057;48.498;32.260;2022-11-14T10:35:41;11.82;;;6.22;;
45318;SDS011;31057;48.498;32.260;2022-11-14T10:40:23;7.18;;;3.90;;
45318;SDS011;31057;48.498;32.260;2022-11-14T10:42:39;6.43;;;4.80;;
45318;SDS011;31057;48.498;32.260;2022-11-14T10:44:58;8.25;;;5.15;;
45318;SDS011;31057;48.498;32.260;2022-11-14T10:47:05;6.03;;;5.25;;
45318;SDS011;31057;48.498;32.260;2022-11-14T10:49:23;8.18;;;4.82;;
45318;SDS011;31057;48.498;32.260;2022-11-14T10:51:43;9.13;;;5.32;;
45318;SDS011;31057;48.498;32.260;2022-11-14T10:53:52;12.20;;;6.05;;
45318;SDS011;31057;48.498;32.260;2022-11-14T10:56:04;11.63;;;5.43;;
45318;SDS011;31057;48.498;32.260;2022-11-14T10:58:10;6.93;;;4.47;;
45318;SDS011;31057;48.498;32.260;2022-11-14T11:00:16;7.95;;;5.15;;
45318;SDS011;31057;48.498;32.260;2022-11-14T11:02:25;8.70;;;5.05;;
45318;SDS011;31057;48.498;32.260;2022-11-14T11:04:46;9.80;;;5.25;;
45318;SDS011;31057;48.498;32.260;2022-11-14T11:06:49;8.25;;;4.78;;
45318;SDS011;31057;48.498;32.260;2022-11-14T11:08:55;7.07;;;5.32;;
45318;SDS011;31057;48.498;32.260;2022-11-14T11:11:15;8.02;;;6.05;;
45318;SDS011;31057;48.498;32.260;2022-11-14T11:13:33;11.50;;;5.70;;
45318;SDS011;31057;48.498;32.260;2022-11-14T11:15:40;7.57;;;5.38;;
45318;SDS011;31057;48.498;32.260;2022-11-14T11:22:34;7.55;;;5.03;;
45318;SDS011;31057;48.498;32.260;2022-11-14T11:24:38;9.18;;;4.57;;
45318;SDS011;31057;48.498;32.260;2022-11-14T11:26:39;6.72;;;5.15;;
45318;SDS011;31057;48.498;32.260;2022-11-14T11:28:41;9.88;;;5.53;;
45318;SDS011;31057;48.498;32.260;2022-11-14T11:33:14;6.85;;;4.18;;
45318;SDS011;31057;48.498;32.260;2022-11-14T11:35:16;7.97;;;4.38;;
45318;SDS011;31057;48.498;32.260;2022-11-14T11:37:19;6.18;;;3.83;;
45318;SDS011;31057;48.498;32.260;2022-11-14T11:39:26;8.95;;;4.47;;
45318;SDS011;31057;48.498;32.260;2022-11-14T11:41:33;8.40;;;4.22;;
45318;SDS011;31057;48.498;32.260;2022-11-14T11:44:01;7.53;;;4.15;;
45318;SDS011;31057;48.498;32.260;2022-11-14T11:46:09;12.68;;;4.35;;
45318;SDS011;31057;48.498;32.260;2022-11-14T11:48:19;7.88;;;4.88;;
45318;SDS011;31057;48.498;32.260;2022-11-14T11:50:27;6.65;;;4.57;;
45318;SDS011;31057;48.498;32.260;2022-11-14T11:52:31;7.97;;;4.45;;
45318;SDS011;31057;48.498;32.260;2022-11-14T11:57:11;5.50;;;4.03;;
45318;SDS011;31057;48.498;32.260;2022-11-14T11:59:36;5.45;;;3.92;;
45318;SDS011;31057;48.498;32.260;2022-11-14T12:01:45;5.53;;;4.05;;
45318;SDS011;31057;48.498;32.260;2022-11-14T12:03:49;10.70;;;4.50;;
45318;SDS011;31057;48.498;32.260;2022-11-14T12:08:25;5.72;;;3.97;;
45318;SDS011;31057;48.498;32.260;2022-11-14T12:10:46;11.18;;;4.05;;
45318;SDS011;31057;48.498;32.260;2022-11-14T12:12:56;6.25;;;4.18;;
45318;SDS011;31057;48.498;32.260;2022-11-14T12:25:33;7.45;;;5.00;;
45318;SDS011;31057;48.498;32.260;2022-11-14T12:32:29;6.35;;;3.90;;
45318;SDS011;31057;48.498;32.260;2022-11-14T12:34:38;6.13;;;3.80;;
45318;SDS011;31057;48.498;32.260;2022-11-14T12:36:46;7.27;;;3.97;;
45318;SDS011;31057;48.498;32.260;2022-11-14T12:38:51;6.72;;;4.47;;
45318;SDS011;31057;48.498;32.260;2022-11-14T12:40:54;6.63;;;4.28;;
45318;SDS011;31057;48.498;32.260;2022-11-14T12:42:59;6.72;;;4.03;;
45318;SDS011;31057;48.498;32.260;2022-11-14T12:45:03;8.30;;;4.72;;
45318;SDS011;31057;48.498;32.260;2022-11-14T12:47:16;7.40;;;5.10;;
45318;SDS011;31057;48.498;32.260;2022-11-14T12:51:48;6.60;;;4.82;;
45318;SDS011;31057;48.498;32.260;2022-11-14T12:53:54;8.93;;;4.65;;
45318;SDS011;31057;48.498;32.260;2022-11-14T12:56:02;7.90;;;4.22;;
45318;SDS011;31057;48.498;32.260;2022-11-14T13:04:58;7.32;;;4.53;;
45318;SDS011;31057;48.498;32.260;2022-11-14T13:07:27;7.68;;;5.22;;
45318;SDS011;31057;48.498;32.260;2022-11-14T13:09:40;6.25;;;3.95;;
45318;SDS011;31057;48.498;32.260;2022-11-14T13:12:27;7.90;;;5.18;;
45318;SDS011;31057;48.498;32.260;2022-11-14T13:14:51;8.55;;;5.30;;
45318;SDS011;31057;48.498;32.260;2022-11-14T13:19:44;8.25;;;5.15;;
45318;SDS011;31057;48.498;32.260;2022-11-14T13:24:16;15.23;;;6.32;;
45318;SDS011;31057;48.498;32.260;2022-11-14T13:35:41;16.75;;;10.48;;
45318;SDS011;31057;48.498;32.260;2022-11-14T13:42:44;13.45;;;11.00;;
45318;SDS011;31057;48.498;32.260;2022-11-14T13:45:18;14.02;;;11.52;;
45318;SDS011;31057;48.498;32.260;2022-11-14T13:52:03;21.13;;;17.08;;
45318;SDS011;31057;48.498;32.260;2022-11-14T13:54:11;21.33;;;16.42;;
45318;SDS011;31057;48.498;32.260;2022-11-14T13:56:29;19.90;;;15.18;;
45318;SDS011;31057;48.498;32.260;2022-11-14T13:58:56;26.50;;;15.57;;
45318;SDS011;31057;48.498;32.260;2022-11-14T14:10:52;26.58;;;19.23;;
45318;SDS011;31057;48.498;32.260;2022-11-14T14:13:13;29.33;;;20.73;;
45318;SDS011;31057;48.498;32.260;2022-11-14T14:15:43;37.13;;;21.95;;
45318;SDS011;31057;48.498;32.260;2022-11-14T14:22:40;36.63;;;24.80;;
45318;SDS011;31057;48.498;32.260;2022-11-14T14:27:15;40.70;;;27.20;;
45318;SDS011;31057;48.498;32.260;2022-11-14T14:31:48;44.40;;;29.50;;
45318;SDS011;31057;48.498;32.260;2022-11-14T14:35:52;40.58;;;27.70;;
45318;SDS011;31057;48.498;32.260;2022-11-14T14:37:55;46.95;;;26.88;;
45318;SDS011;31057;48.498;32.260;2022-11-14T14:40:01;49.17;;;29.52;;